This is the latest recevied weather packets stored in our database for station/object DB0OHL. If no packets are shown the sender has not sent any weather packets the latest 10 day(s).
| Time | Temp. | Humidity | Pressure | Rain* | Wind** | Luminosity | Snow |
|---|---|---|---|---|---|---|---|
| 1777827371 | 14.44° C | 95% | 1010.5 hPa | 0 mm | - | - | - |
| 1777826768 | 14.44° C | 96% | 1010.5 hPa | 0 mm | - | - | - |
| 1777826166 | 14.44° C | 96% | 1010.4 hPa | 0 mm | - | - | - |
| 1777825563 | 14.44° C | 96% | 1010.4 hPa | 0 mm | - | - | - |
| 1777824961 | 14.44° C | 95% | 1010.5 hPa | 0 mm | - | - | - |
| 1777824358 | 14.44° C | 95% | 1010.4 hPa | 0 mm | - | - | - |
| 1777823756 | 14.44° C | 94% | 1010.5 hPa | 0 mm | - | - | - |
| 1777823153 | 14.44° C | 93% | 1010.4 hPa | 0 mm | - | - | - |
| 1777822551 | 15° C | 90% | 1010.4 hPa | 0 mm | - | - | - |
| 1777821948 | 15.56° C | 86% | 1010.3 hPa | 0 mm | - | - | - |
| 1777821346 | 16.11° C | 81% | 1010.2 hPa | 0 mm | - | - | - |
| 1777820743 | 16.67° C | 80% | 1010.2 hPa | 0 mm | - | - | - |
| 1777820141 | 16.67° C | 79% | 1010.2 hPa | 0 mm | - | - | - |
| 1777819538 | 16.11° C | 80% | 1010.3 hPa | 0 mm | - | - | - |
| 1777818935 | 16.11° C | 80% | 1010.3 hPa | 0 mm | - | - | - |
| 1777818333 | 16.11° C | 81% | 1010.3 hPa | 0 mm | - | - | - |
| 1777817730 | 16.11° C | 81% | 1010.3 hPa | 0 mm | - | - | - |
| 1777817128 | 16.11° C | 81% | 1010.2 hPa | 0 mm | - | - | - |
| 1777816525 | 15.56° C | 81% | 1010.2 hPa | 0 mm | - | - | - |
| 1777815923 | 17.22° C | 75% | 1010 hPa | 0 mm | - | - | - |
| 1777815320 | 17.78° C | 67% | 1010.1 hPa | 0 mm | - | - | - |
| 1777814718 | 17.78° C | 66% | 1010.2 hPa | 0 mm | - | - | - |
| 1777814115 | 17.78° C | 64% | 1010.4 hPa | 0 mm | - | - | - |
| 1777813573 | 17.78° C | 63% | 1010.3 hPa | 0 mm | - | - | - |
| 1777812970 | 18.33° C | 63% | 1010.3 hPa | 0 mm | - | - | - |
* Rain latest hour (hover to see other rain measurements)
** Current wind speed in m/s (hover to see current wind gust speed)